sensor_id;sensor_type;location;lat;lon;timestamp;temperature;humidity
2767;DHT22;1391;46.742;11.636;2022-11-15T00:01:07;5.90;99.90
2767;DHT22;1391;46.742;11.636;2022-11-15T00:03:36;6.00;99.90
2767;DHT22;1391;46.742;11.636;2022-11-15T00:06:03;6.00;99.90
2767;DHT22;1391;46.742;11.636;2022-11-15T00:08:32;6.10;99.90
2767;DHT22;1391;46.742;11.636;2022-11-15T00:11:01;6.00;99.90
2767;DHT22;1391;46.742;11.636;2022-11-15T00:13:29;6.00;99.90
2767;DHT22;1391;46.742;11.636;2022-11-15T00:15:57;6.10;99.90
2767;DHT22;1391;46.742;11.636;2022-11-15T00:18:26;6.00;99.90
2767;DHT22;1391;46.742;11.636;2022-11-15T00:20:55;6.10;99.90
2767;DHT22;1391;46.742;11.636;2022-11-15T00:23:23;6.00;99.90
2767;DHT22;1391;46.742;11.636;2022-11-15T00:25:55;6.10;99.90
2767;DHT22;1391;46.742;11.636;2022-11-15T00:28:24;5.90;99.90
2767;DHT22;1391;46.742;11.636;2022-11-15T00:30:51;6.10;99.90
2767;DHT22;1391;46.742;11.636;2022-11-15T00:33:19;6.00;99.90
2767;DHT22;1391;46.742;11.636;2022-11-15T00:35:47;6.10;99.90
2767;DHT22;1391;46.742;11.636;2022-11-15T00:38:17;5.90;99.90
2767;DHT22;1391;46.742;11.636;2022-11-15T00:40:48;6.10;99.90
2767;DHT22;1391;46.742;11.636;2022-11-15T00:43:15;6.00;99.90
2767;DHT22;1391;46.742;11.636;2022-11-15T00:45:43;6.10;99.90
2767;DHT22;1391;46.742;11.636;2022-11-15T00:48:10;5.90;99.90
2767;DHT22;1391;46.742;11.636;2022-11-15T00:50:38;6.00;99.90
2767;DHT22;1391;46.742;11.636;2022-11-15T00:53:05;6.10;99.90
2767;DHT22;1391;46.742;11.636;2022-11-15T00:55:34;5.90;99.90
2767;DHT22;1391;46.742;11.636;2022-11-15T00:58:02;6.00;99.90
2767;DHT22;1391;46.742;11.636;2022-11-15T01:00:30;6.10;99.90
2767;DHT22;1391;46.742;11.636;2022-11-15T01:02:57;5.90;99.90
2767;DHT22;1391;46.742;11.636;2022-11-15T01:05:25;6.00;99.90
2767;DHT22;1391;46.742;11.636;2022-11-15T01:07:52;6.10;99.90
2767;DHT22;1391;46.742;11.636;2022-11-15T01:10:21;6.00;99.90
2767;DHT22;1391;46.742;11.636;2022-11-15T01:12:50;6.10;99.90
2767;DHT22;1391;46.742;11.636;2022-11-15T01:15:18;6.00;99.90
2767;DHT22;1391;46.742;11.636;2022-11-15T01:17:45;6.10;99.90
2767;DHT22;1391;46.742;11.636;2022-11-15T01:20:12;6.20;99.90
2767;DHT22;1391;46.742;11.636;2022-11-15T01:22:40;6.00;99.90
2767;DHT22;1391;46.742;11.636;2022-11-15T01:25:08;6.00;99.90
2767;DHT22;1391;46.742;11.636;2022-11-15T01:27:35;6.10;99.90
2767;DHT22;1391;46.742;11.636;2022-11-15T01:30:05;6.20;99.90
2767;DHT22;1391;46.742;11.636;2022-11-15T01:32:34;5.80;99.90
2767;DHT22;1391;46.742;11.636;2022-11-15T01:35:01;6.10;99.90
2767;DHT22;1391;46.742;11.636;2022-11-15T01:37:29;5.70;99.90
2767;DHT22;1391;46.742;11.636;2022-11-15T01:39:56;5.80;99.90
2767;DHT22;1391;46.742;11.636;2022-11-15T01:42:24;5.80;99.90
2767;DHT22;1391;46.742;11.636;2022-11-15T01:44:52;5.80;99.90
2767;DHT22;1391;46.742;11.636;2022-11-15T01:47:24;5.80;99.90
2767;DHT22;1391;46.742;11.636;2022-11-15T01:49:59;6.10;99.90
2767;DHT22;1391;46.742;11.636;2022-11-15T01:52:30;5.70;99.90
2767;DHT22;1391;46.742;11.636;2022-11-15T01:55:03;5.80;99.90
2767;DHT22;1391;46.742;11.636;2022-11-15T01:57:34;5.80;99.90
2767;DHT22;1391;46.742;11.636;2022-11-15T02:00:04;5.80;99.90
2767;DHT22;1391;46.742;11.636;2022-11-15T02:02:36;5.80;99.90
2767;DHT22;1391;46.742;11.636;2022-11-15T02:05:05;6.10;99.90
2767;DHT22;1391;46.742;11.636;2022-11-15T02:07:35;5.70;99.90
2767;DHT22;1391;46.742;11.636;2022-11-15T02:10:07;5.80;99.90
2767;DHT22;1391;46.742;11.636;2022-11-15T02:12:36;5.80;99.90
2767;DHT22;1391;46.742;11.636;2022-11-15T02:15:05;5.90;99.90
2767;DHT22;1391;46.742;11.636;2022-11-15T02:17:47;5.80;99.90
2767;DHT22;1391;46.742;11.636;2022-11-15T02:20:46;5.80;99.90
2767;DHT22;1391;46.742;11.636;2022-11-15T02:23:50;5.80;99.90
2767;DHT22;1391;46.742;11.636;2022-11-15T02:26:54;5.80;99.90
2767;DHT22;1391;46.742;11.636;2022-11-15T02:29:57;6.00;99.90
2767;DHT22;1391;46.742;11.636;2022-11-15T02:32:36;5.80;99.90
2767;DHT22;1391;46.742;11.636;2022-11-15T02:35:15;5.80;99.90
2767;DHT22;1391;46.742;11.636;2022-11-15T02:37:51;6.10;99.90
2767;DHT22;1391;46.742;11.636;2022-11-15T02:40:30;5.60;99.90
2767;DHT22;1391;46.742;11.636;2022-11-15T02:43:08;6.10;99.90
2767;DHT22;1391;46.742;11.636;2022-11-15T02:45:58;5.70;99.90
2767;DHT22;1391;46.742;11.636;2022-11-15T02:48:31;6.10;99.90
2767;DHT22;1391;46.742;11.636;2022-11-15T02:50:59;5.70;99.90
2767;DHT22;1391;46.742;11.636;2022-11-15T02:53:28;6.10;99.90
2767;DHT22;1391;46.742;11.636;2022-11-15T02:55:56;5.90;99.90
2767;DHT22;1391;46.742;11.636;2022-11-15T02:58:56;6.10;99.90
2767;DHT22;1391;46.742;11.636;2022-11-15T03:01:39;5.60;99.90
2767;DHT22;1391;46.742;11.636;2022-11-15T03:04:24;5.90;99.90
2767;DHT22;1391;46.742;11.636;2022-11-15T03:07:00;6.00;99.90
2767;DHT22;1391;46.742;11.636;2022-11-15T03:09:34;6.10;99.90
2767;DHT22;1391;46.742;11.636;2022-11-15T03:12:13;5.70;99.90
2767;DHT22;1391;46.742;11.636;2022-11-15T03:14:49;5.80;99.90
2767;DHT22;1391;46.742;11.636;2022-11-15T03:17:23;6.00;99.90
2767;DHT22;1391;46.742;11.636;2022-11-15T03:19:57;6.00;99.90
2767;DHT22;1391;46.742;11.636;2022-11-15T03:22:28;5.80;99.90
2767;DHT22;1391;46.742;11.636;2022-11-15T03:25:00;5.80;99.90
2767;DHT22;1391;46.742;11.636;2022-11-15T03:27:35;5.80;99.90
2767;DHT22;1391;46.742;11.636;2022-11-15T03:30:07;5.90;99.90
2767;DHT22;1391;46.742;11.636;2022-11-15T03:32:38;5.80;99.90
2767;DHT22;1391;46.742;11.636;2022-11-15T03:35:12;6.10;99.90
2767;DHT22;1391;46.742;11.636;2022-11-15T03:37:43;5.70;99.90
2767;DHT22;1391;46.742;11.636;2022-11-15T03:40:14;5.80;99.90
2767;DHT22;1391;46.742;11.636;2022-11-15T03:42:48;5.90;99.90
2767;DHT22;1391;46.742;11.636;2022-11-15T03:45:24;5.80;99.90
2767;DHT22;1391;46.742;11.636;2022-11-15T03:47:58;5.50;99.90
2767;DHT22;1391;46.742;11.636;2022-11-15T03:50:30;5.90;99.90
2767;DHT22;1391;46.742;11.636;2022-11-15T03:52:58;5.50;99.90
2767;DHT22;1391;46.742;11.636;2022-11-15T03:55:26;5.60;99.90
2767;DHT22;1391;46.742;11.636;2022-11-15T03:57:57;5.70;99.90
2767;DHT22;1391;46.742;11.636;2022-11-15T04:00:27;5.40;99.90
2767;DHT22;1391;46.742;11.636;2022-11-15T04:02:54;5.60;99.90
2767;DHT22;1391;46.742;11.636;2022-11-15T04:05:22;5.70;99.90
2767;DHT22;1391;46.742;11.636;2022-11-15T04:07:51;5.60;99.90
2767;DHT22;1391;46.742;11.636;2022-11-15T04:10:19;5.70;99.90
2767;DHT22;1391;46.742;11.636;2022-11-15T04:12:46;5.50;99.90
2767;DHT22;1391;46.742;11.636;2022-11-15T04:15:15;5.90;99.90
2767;DHT22;1391;46.742;11.636;2022-11-15T04:17:48;5.70;99.90
2767;DHT22;1391;46.742;11.636;2022-11-15T04:20:18;5.80;99.90
2767;DHT22;1391;46.742;11.636;2022-11-15T04:23:08;5.60;99.90
2767;DHT22;1391;46.742;11.636;2022-11-15T04:25:56;5.70;99.90
2767;DHT22;1391;46.742;11.636;2022-11-15T04:28:24;5.50;99.90
2767;DHT22;1391;46.742;11.636;2022-11-15T04:30:52;5.50;99.90
2767;DHT22;1391;46.742;11.636;2022-11-15T04:33:20;5.80;99.90
2767;DHT22;1391;46.742;11.636;2022-11-15T04:35:48;5.50;99.90
2767;DHT22;1391;46.742;11.636;2022-11-15T04:38:32;5.50;99.90
2767;DHT22;1391;46.742;11.636;2022-11-15T04:41:01;5.80;99.90
2767;DHT22;1391;46.742;11.636;2022-11-15T04:43:29;5.90;99.90
2767;DHT22;1391;46.742;11.636;2022-11-15T04:45:56;5.80;99.90
2767;DHT22;1391;46.742;11.636;2022-11-15T04:48:23;5.60;99.90
2767;DHT22;1391;46.742;11.636;2022-11-15T04:50:51;5.60;99.90
2767;DHT22;1391;46.742;11.636;2022-11-15T04:53:18;5.70;99.90
2767;DHT22;1391;46.742;11.636;2022-11-15T04:55:48;5.80;99.90
2767;DHT22;1391;46.742;11.636;2022-11-15T04:58:16;5.70;99.90
2767;DHT22;1391;46.742;11.636;2022-11-15T05:00:43;5.80;99.90
2767;DHT22;1391;46.742;11.636;2022-11-15T05:03:12;5.50;99.90
2767;DHT22;1391;46.742;11.636;2022-11-15T05:05:58;5.80;99.90
2767;DHT22;1391;46.742;11.636;2022-11-15T05:08:26;5.70;99.90
2767;DHT22;1391;46.742;11.636;2022-11-15T05:10:55;5.60;99.90
2767;DHT22;1391;46.742;11.636;2022-11-15T05:13:23;5.70;99.90
2767;DHT22;1391;46.742;11.636;2022-11-15T05:15:50;5.80;99.90
2767;DHT22;1391;46.742;11.636;2022-11-15T05:18:17;5.60;99.90
2767;DHT22;1391;46.742;11.636;2022-11-15T05:20:45;5.80;99.90
2767;DHT22;1391;46.742;11.636;2022-11-15T05:23:12;5.50;99.90
2767;DHT22;1391;46.742;11.636;2022-11-15T05:25:40;5.80;99.90
2767;DHT22;1391;46.742;11.636;2022-11-15T05:28:08;5.70;99.90
2767;DHT22;1391;46.742;11.636;2022-11-15T05:30:37;5.60;99.90
2767;DHT22;1391;46.742;11.636;2022-11-15T05:33:05;5.70;99.90
2767;DHT22;1391;46.742;11.636;2022-11-15T05:35:35;5.70;99.90
2767;DHT22;1391;46.742;11.636;2022-11-15T05:38:05;5.60;99.90
2767;DHT22;1391;46.742;11.636;2022-11-15T05:40:33;5.70;99.90
2767;DHT22;1391;46.742;11.636;2022-11-15T05:43:02;5.50;99.90
2767;DHT22;1391;46.742;11.636;2022-11-15T05:45:33;5.50;99.90
2767;DHT22;1391;46.742;11.636;2022-11-15T05:48:04;5.60;99.90
2767;DHT22;1391;46.742;11.636;2022-11-15T05:50:34;5.70;99.90
2767;DHT22;1391;46.742;11.636;2022-11-15T05:53:06;5.80;99.90
2767;DHT22;1391;46.742;11.636;2022-11-15T05:55:33;5.80;99.90
2767;DHT22;1391;46.742;11.636;2022-11-15T05:58:01;6.10;99.90
2767;DHT22;1391;46.742;11.636;2022-11-15T06:00:29;6.00;99.90
2767;DHT22;1391;46.742;11.636;2022-11-15T06:02:58;6.10;99.90
2767;DHT22;1391;46.742;11.636;2022-11-15T06:05:25;6.00;99.90
2767;DHT22;1391;46.742;11.636;2022-11-15T06:07:52;6.10;99.90
2767;DHT22;1391;46.742;11.636;2022-11-15T06:10:23;5.70;99.90
2767;DHT22;1391;46.742;11.636;2022-11-15T06:12:56;6.00;99.90
2767;DHT22;1391;46.742;11.636;2022-11-15T06:15:25;6.00;99.90
2767;DHT22;1391;46.742;11.636;2022-11-15T06:17:56;6.00;99.90
2767;DHT22;1391;46.742;11.636;2022-11-15T06:20:25;6.00;99.90
2767;DHT22;1391;46.742;11.636;2022-11-15T06:22:57;5.80;99.90
2767;DHT22;1391;46.742;11.636;2022-11-15T06:25:25;5.70;99.90
2767;DHT22;1391;46.742;11.636;2022-11-15T06:27:54;5.80;99.90
2767;DHT22;1391;46.742;11.636;2022-11-15T06:30:23;5.60;99.90
2767;DHT22;1391;46.742;11.636;2022-11-15T06:32:51;5.60;99.90
2767;DHT22;1391;46.742;11.636;2022-11-15T06:35:27;5.60;99.90
2767;DHT22;1391;46.742;11.636;2022-11-15T06:37:56;5.90;99.90
2767;DHT22;1391;46.742;11.636;2022-11-15T06:40:27;6.00;99.90
2767;DHT22;1391;46.742;11.636;2022-11-15T06:42:57;5.80;99.90
2767;DHT22;1391;46.742;11.636;2022-11-15T06:45:26;5.50;99.90
2767;DHT22;1391;46.742;11.636;2022-11-15T06:47:53;5.80;99.90
2767;DHT22;1391;46.742;11.636;2022-11-15T06:50:23;5.90;99.90
2767;DHT22;1391;46.742;11.636;2022-11-15T06:52:51;5.80;99.90
2767;DHT22;1391;46.742;11.636;2022-11-15T06:55:23;5.50;99.90
2767;DHT22;1391;46.742;11.636;2022-11-15T06:57:51;5.50;99.90
2767;DHT22;1391;46.742;11.636;2022-11-15T07:00:21;5.70;99.90
2767;DHT22;1391;46.742;11.636;2022-11-15T07:02:50;6.10;99.90
2767;DHT22;1391;46.742;11.636;2022-11-15T07:05:18;5.70;99.90
2767;DHT22;1391;46.742;11.636;2022-11-15T07:07:52;6.10;99.90
2767;DHT22;1391;46.742;11.636;2022-11-15T07:10:20;6.00;99.90
2767;DHT22;1391;46.742;11.636;2022-11-15T07:12:50;6.10;99.90
2767;DHT22;1391;46.742;11.636;2022-11-15T07:15:19;5.90;99.90
2767;DHT22;1391;46.742;11.636;2022-11-15T07:17:48;6.00;99.90
2767;DHT22;1391;46.742;11.636;2022-11-15T07:20:17;6.10;99.90
2767;DHT22;1391;46.742;11.636;2022-11-15T07:22:45;6.30;99.90
2767;DHT22;1391;46.742;11.636;2022-11-15T07:25:14;6.20;99.90
2767;DHT22;1391;46.742;11.636;2022-11-15T07:27:42;6.40;99.90
2767;DHT22;1391;46.742;11.636;2022-11-15T07:30:12;6.40;99.90
2767;DHT22;1391;46.742;11.636;2022-11-15T07:32:40;6.50;99.90
2767;DHT22;1391;46.742;11.636;2022-11-15T07:35:08;6.30;99.90
2767;DHT22;1391;46.742;11.636;2022-11-15T07:37:36;6.80;99.90
2767;DHT22;1391;46.742;11.636;2022-11-15T07:40:03;6.90;99.90
2767;DHT22;1391;46.742;11.636;2022-11-15T07:42:33;6.90;99.90
2767;DHT22;1391;46.742;11.636;2022-11-15T07:45:19;6.90;99.90
2767;DHT22;1391;46.742;11.636;2022-11-15T07:47:47;6.90;99.90
2767;DHT22;1391;46.742;11.636;2022-11-15T07:50:16;7.20;99.90
2767;DHT22;1391;46.742;11.636;2022-11-15T07:52:44;6.70;99.90
2767;DHT22;1391;46.742;11.636;2022-11-15T07:55:12;7.30;99.90
2767;DHT22;1391;46.742;11.636;2022-11-15T07:57:42;7.20;99.90
2767;DHT22;1391;46.742;11.636;2022-11-15T08:00:10;7.60;99.90
2767;DHT22;1391;46.742;11.636;2022-11-15T08:02:38;7.60;99.90
2767;DHT22;1391;46.742;11.636;2022-11-15T08:05:06;7.50;99.90
2767;DHT22;1391;46.742;11.636;2022-11-15T08:07:34;7.50;99.90
2767;DHT22;1391;46.742;11.636;2022-11-15T08:10:04;7.60;99.90
2767;DHT22;1391;46.742;11.636;2022-11-15T08:12:33;8.10;99.90
2767;DHT22;1391;46.742;11.636;2022-11-15T08:15:05;8.10;99.90
2767;DHT22;1391;46.742;11.636;2022-11-15T08:17:33;8.40;97.50
2767;DHT22;1391;46.742;11.636;2022-11-15T08:20:01;8.40;96.90
2767;DHT22;1391;46.742;11.636;2022-11-15T08:22:29;8.40;97.00
2767;DHT22;1391;46.742;11.636;2022-11-15T08:24:57;8.30;97.00
2767;DHT22;1391;46.742;11.636;2022-11-15T08:27:25;8.30;95.80
2767;DHT22;1391;46.742;11.636;2022-11-15T08:29:53;8.80;95.80
2767;DHT22;1391;46.742;11.636;2022-11-15T08:32:22;8.80;95.30
2767;DHT22;1391;46.742;11.636;2022-11-15T08:34:50;8.90;95.30
2767;DHT22;1391;46.742;11.636;2022-11-15T08:37:17;8.80;93.90
2767;DHT22;1391;46.742;11.636;2022-11-15T08:39:45;8.90;92.90
2767;DHT22;1391;46.742;11.636;2022-11-15T08:42:12;9.00;92.30
2767;DHT22;1391;46.742;11.636;2022-11-15T08:44:41;8.70;91.70
2767;DHT22;1391;46.742;11.636;2022-11-15T08:47:11;8.90;91.70
2767;DHT22;1391;46.742;11.636;2022-11-15T08:49:41;9.50;90.30
2767;DHT22;1391;46.742;11.636;2022-11-15T08:52:09;9.30;90.00
2767;DHT22;1391;46.742;11.636;2022-11-15T08:54:38;9.30;85.20
2767;DHT22;1391;46.742;11.636;2022-11-15T08:57:05;8.80;89.30
2767;DHT22;1391;46.742;11.636;2022-11-15T08:59:35;9.50;89.20
2767;DHT22;1391;46.742;11.636;2022-11-15T09:02:03;9.90;87.60
2767;DHT22;1391;46.742;11.636;2022-11-15T09:04:31;9.90;82.80
2767;DHT22;1391;46.742;11.636;2022-11-15T09:07:00;10.00;78.30
2767;DHT22;1391;46.742;11.636;2022-11-15T09:09:27;10.20;80.00
2767;DHT22;1391;46.742;11.636;2022-11-15T09:11:55;10.20;78.10
2767;DHT22;1391;46.742;11.636;2022-11-15T09:14:22;10.60;74.90
2767;DHT22;1391;46.742;11.636;2022-11-15T09:16:50;10.50;78.10
2767;DHT22;1391;46.742;11.636;2022-11-15T09:19:18;10.50;77.30
2767;DHT22;1391;46.742;11.636;2022-11-15T09:21:46;11.10;74.90
2767;DHT22;1391;46.742;11.636;2022-11-15T09:24:15;11.20;74.60
2767;DHT22;1391;46.742;11.636;2022-11-15T09:26:44;10.60;71.10
2767;DHT22;1391;46.742;11.636;2022-11-15T09:29:12;10.50;71.80
2767;DHT22;1391;46.742;11.636;2022-11-15T09:31:41;10.50;68.30
2767;DHT22;1391;46.742;11.636;2022-11-15T09:34:09;11.00;70.10
2767;DHT22;1391;46.742;11.636;2022-11-15T09:36:37;11.00;67.50
2767;DHT22;1391;46.742;11.636;2022-11-15T09:39:04;11.50;67.90
2767;DHT22;1391;46.742;11.636;2022-11-15T09:41:48;11.40;67.10
2767;DHT22;1391;46.742;11.636;2022-11-15T09:44:47;11.40;65.30
2767;DHT22;1391;46.742;11.636;2022-11-15T09:50:54;11.00;66.70
2767;DHT22;1391;46.742;11.636;2022-11-15T09:53:29;11.30;65.50
2767;DHT22;1391;46.742;11.636;2022-11-15T09:56:00;11.70;67.40
2767;DHT22;1391;46.742;11.636;2022-11-15T09:58:36;11.40;63.20
2767;DHT22;1391;46.742;11.636;2022-11-15T10:01:17;11.30;62.70
2767;DHT22;1391;46.742;11.636;2022-11-15T10:03:47;11.20;64.50
2767;DHT22;1391;46.742;11.636;2022-11-15T10:06:21;11.80;63.70
2767;DHT22;1391;46.742;11.636;2022-11-15T10:08:55;11.70;62.30
2767;DHT22;1391;46.742;11.636;2022-11-15T10:11:30;11.70;62.30
2767;DHT22;1391;46.742;11.636;2022-11-15T10:14:03;11.20;61.10
2767;DHT22;1391;46.742;11.636;2022-11-15T10:20:08;10.80;62.20
2767;DHT22;1391;46.742;11.636;2022-11-15T10:22:41;11.00;62.60
2767;DHT22;1391;46.742;11.636;2022-11-15T10:25:18;10.60;62.20
2767;DHT22;1391;46.742;11.636;2022-11-15T10:27:54;10.90;61.90
2767;DHT22;1391;46.742;11.636;2022-11-15T10:30:32;11.00;63.50
2767;DHT22;1391;46.742;11.636;2022-11-15T10:33:12;10.80;64.30
2767;DHT22;1391;46.742;11.636;2022-11-15T10:35:45;11.00;64.10
2767;DHT22;1391;46.742;11.636;2022-11-15T10:38:13;11.00;62.00
2767;DHT22;1391;46.742;11.636;2022-11-15T10:40:41;10.60;61.40
2767;DHT22;1391;46.742;11.636;2022-11-15T10:43:16;10.70;63.00
2767;DHT22;1391;46.742;11.636;2022-11-15T10:45:47;11.00;62.30
2767;DHT22;1391;46.742;11.636;2022-11-15T10:48:24;11.40;61.70
2767;DHT22;1391;46.742;11.636;2022-11-15T10:50:53;11.40;58.90
2767;DHT22;1391;46.742;11.636;2022-11-15T10:53:30;11.20;60.10
2767;DHT22;1391;46.742;11.636;2022-11-15T10:56:02;11.40;59.80
2767;DHT22;1391;46.742;11.636;2022-11-15T10:58:37;11.80;58.40
2767;DHT22;1391;46.742;11.636;2022-11-15T11:01:13;12.20;59.00
2767;DHT22;1391;46.742;11.636;2022-11-15T11:03:44;12.60;57.40
2767;DHT22;1391;46.742;11.636;2022-11-15T11:06:14;12.30;53.70
2767;DHT22;1391;46.742;11.636;2022-11-15T11:08:55;12.30;53.20
2767;DHT22;1391;46.742;11.636;2022-11-15T11:11:26;12.70;53.30
2767;DHT22;1391;46.742;11.636;2022-11-15T11:14:12;12.30;52.80
2767;DHT22;1391;46.742;11.636;2022-11-15T11:16:48;12.20;53.10
2767;DHT22;1391;46.742;11.636;2022-11-15T11:19:48;12.30;53.30
2767;DHT22;1391;46.742;11.636;2022-11-15T11:22:25;11.80;54.10
2767;DHT22;1391;46.742;11.636;2022-11-15T11:25:16;11.80;55.80
2767;DHT22;1391;46.742;11.636;2022-11-15T11:28:05;11.80;54.40
2767;DHT22;1391;46.742;11.636;2022-11-15T11:30:50;11.70;52.60
2767;DHT22;1391;46.742;11.636;2022-11-15T11:33:30;12.90;53.70
2767;DHT22;1391;46.742;11.636;2022-11-15T11:36:07;12.60;54.90
2767;DHT22;1391;46.742;11.636;2022-11-15T11:38:58;12.70;54.80
2767;DHT22;1391;46.742;11.636;2022-11-15T11:41:46;12.70;56.30
2767;DHT22;1391;46.742;11.636;2022-11-15T11:44:28;13.00;54.30
2767;DHT22;1391;46.742;11.636;2022-11-15T11:47:00;12.20;54.80
2767;DHT22;1391;46.742;11.636;2022-11-15T11:49:37;12.00;56.30
2767;DHT22;1391;46.742;11.636;2022-11-15T11:52:12;12.40;58.10
2767;DHT22;1391;46.742;11.636;2022-11-15T11:54:48;11.80;59.00
2767;DHT22;1391;46.742;11.636;2022-11-15T11:57:28;11.50;60.70
2767;DHT22;1391;46.742;11.636;2022-11-15T12:00:04;11.40;61.10
2767;DHT22;1391;46.742;11.636;2022-11-15T12:02:44;11.30;62.40
2767;DHT22;1391;46.742;11.636;2022-11-15T12:05:22;11.10;62.30
2767;DHT22;1391;46.742;11.636;2022-11-15T12:07:56;10.90;63.10
2767;DHT22;1391;46.742;11.636;2022-11-15T12:10:30;10.90;63.90
2767;DHT22;1391;46.742;11.636;2022-11-15T12:13:03;10.70;63.10
2767;DHT22;1391;46.742;11.636;2022-11-15T12:15:36;10.50;63.60
2767;DHT22;1391;46.742;11.636;2022-11-15T12:18:13;10.90;64.20
2767;DHT22;1391;46.742;11.636;2022-11-15T12:20:52;10.80;64.30
2767;DHT22;1391;46.742;11.636;2022-11-15T12:23:25;10.80;63.30
2767;DHT22;1391;46.742;11.636;2022-11-15T12:25:59;10.90;63.10
2767;DHT22;1391;46.742;11.636;2022-11-15T12:28:35;10.90;65.10
2767;DHT22;1391;46.742;11.636;2022-11-15T12:31:11;11.30;61.70
2767;DHT22;1391;46.742;11.636;2022-11-15T12:33:43;11.10;61.50
2767;DHT22;1391;46.742;11.636;2022-11-15T12:36:36;11.40;62.80
2767;DHT22;1391;46.742;11.636;2022-11-15T12:39:06;11.20;61.90
2767;DHT22;1391;46.742;11.636;2022-11-15T12:41:37;10.90;60.60
2767;DHT22;1391;46.742;11.636;2022-11-15T12:44:10;10.60;61.70
2767;DHT22;1391;46.742;11.636;2022-11-15T12:49:49;10.80;62.40
2767;DHT22;1391;46.742;11.636;2022-11-15T12:52:20;10.70;64.90
2767;DHT22;1391;46.742;11.636;2022-11-15T12:58:26;10.90;66.00
2767;DHT22;1391;46.742;11.636;2022-11-15T13:00:55;10.90;66.10
2767;DHT22;1391;46.742;11.636;2022-11-15T13:03:24;10.60;66.80
2767;DHT22;1391;46.742;11.636;2022-11-15T13:12:55;10.70;63.00
2767;DHT22;1391;46.742;11.636;2022-11-15T13:15:37;10.50;63.80
2767;DHT22;1391;46.742;11.636;2022-11-15T13:18:30;10.60;62.10
2767;DHT22;1391;46.742;11.636;2022-11-15T13:21:16;10.60;61.40
2767;DHT22;1391;46.742;11.636;2022-11-15T13:24:10;10.80;60.30
2767;DHT22;1391;46.742;11.636;2022-11-15T13:26:40;10.70;60.70
2767;DHT22;1391;46.742;11.636;2022-11-15T13:29:16;10.60;60.00
2767;DHT22;1391;46.742;11.636;2022-11-15T13:31:45;11.00;61.10
2767;DHT22;1391;46.742;11.636;2022-11-15T13:34:26;11.20;59.90
2767;DHT22;1391;46.742;11.636;2022-11-15T13:36:56;10.80;58.80
2767;DHT22;1391;46.742;11.636;2022-11-15T13:39:32;11.10;62.60
2767;DHT22;1391;46.742;11.636;2022-11-15T13:42:03;11.30;63.40
2767;DHT22;1391;46.742;11.636;2022-11-15T13:44:32;11.40;62.70
2767;DHT22;1391;46.742;11.636;2022-11-15T13:47:02;10.90;60.00
2767;DHT22;1391;46.742;11.636;2022-11-15T13:49:31;10.70;58.90
2767;DHT22;1391;46.742;11.636;2022-11-15T13:52:00;10.50;59.90
2767;DHT22;1391;46.742;11.636;2022-11-15T13:54:34;11.20;62.90
2767;DHT22;1391;46.742;11.636;2022-11-15T13:57:05;10.90;61.20
2767;DHT22;1391;46.742;11.636;2022-11-15T13:59:45;10.70;60.20
2767;DHT22;1391;46.742;11.636;2022-11-15T14:02:16;10.50;62.70
2767;DHT22;1391;46.742;11.636;2022-11-15T14:04:48;10.50;61.20
2767;DHT22;1391;46.742;11.636;2022-11-15T14:07:19;10.70;61.00
2767;DHT22;1391;46.742;11.636;2022-11-15T14:09:49;10.50;61.90
2767;DHT22;1391;46.742;11.636;2022-11-15T14:12:23;10.50;62.90
2767;DHT22;1391;46.742;11.636;2022-11-15T14:14:53;10.50;61.90
2767;DHT22;1391;46.742;11.636;2022-11-15T14:17:32;10.20;64.20
2767;DHT22;1391;46.742;11.636;2022-11-15T14:20:01;10.10;66.00
2767;DHT22;1391;46.742;11.636;2022-11-15T14:22:30;10.10;65.70
2767;DHT22;1391;46.742;11.636;2022-11-15T14:25:13;10.40;66.00
2767;DHT22;1391;46.742;11.636;2022-11-15T14:27:43;10.30;67.20
2767;DHT22;1391;46.742;11.636;2022-11-15T14:30:16;10.20;66.20
2767;DHT22;1391;46.742;11.636;2022-11-15T14:32:47;10.10;65.20
2767;DHT22;1391;46.742;11.636;2022-11-15T14:35:18;10.30;65.40
2767;DHT22;1391;46.742;11.636;2022-11-15T14:37:47;10.00;65.60
2767;DHT22;1391;46.742;11.636;2022-11-15T14:40:17;10.00;66.70
2767;DHT22;1391;46.742;11.636;2022-11-15T14:42:47;10.20;66.50
2767;DHT22;1391;46.742;11.636;2022-11-15T14:45:17;10.20;65.70
2767;DHT22;1391;46.742;11.636;2022-11-15T14:47:45;10.30;65.10
2767;DHT22;1391;46.742;11.636;2022-11-15T14:50:14;10.20;65.80
2767;DHT22;1391;46.742;11.636;2022-11-15T14:52:43;10.20;66.90
2767;DHT22;1391;46.742;11.636;2022-11-15T14:55:17;10.00;66.30
2767;DHT22;1391;46.742;11.636;2022-11-15T14:57:47;9.70;67.00
2767;DHT22;1391;46.742;11.636;2022-11-15T15:00:16;9.80;67.30
2767;DHT22;1391;46.742;11.636;2022-11-15T15:02:46;9.90;67.30
2767;DHT22;1391;46.742;11.636;2022-11-15T15:05:17;9.70;67.80
2767;DHT22;1391;46.742;11.636;2022-11-15T15:07:47;9.80;68.30
2767;DHT22;1391;46.742;11.636;2022-11-15T15:10:17;9.60;69.50
2767;DHT22;1391;46.742;11.636;2022-11-15T15:12:45;9.60;69.50
2767;DHT22;1391;46.742;11.636;2022-11-15T15:15:15;9.60;69.70
2767;DHT22;1391;46.742;11.636;2022-11-15T15:17:43;9.60;70.70
2767;DHT22;1391;46.742;11.636;2022-11-15T15:20:11;9.80;71.60
2767;DHT22;1391;46.742;11.636;2022-11-15T15:22:38;9.80;70.50
2767;DHT22;1391;46.742;11.636;2022-11-15T15:25:27;9.80;71.30
2767;DHT22;1391;46.742;11.636;2022-11-15T15:27:55;9.60;71.90
2767;DHT22;1391;46.742;11.636;2022-11-15T15:30:24;9.60;71.10
2767;DHT22;1391;46.742;11.636;2022-11-15T15:32:52;9.70;72.10
2767;DHT22;1391;46.742;11.636;2022-11-15T15:35:21;9.60;72.80
2767;DHT22;1391;46.742;11.636;2022-11-15T15:37:49;9.30;72.20
2767;DHT22;1391;46.742;11.636;2022-11-15T15:40:20;9.30;72.00
2767;DHT22;1391;46.742;11.636;2022-11-15T15:42:51;9.20;71.80
2767;DHT22;1391;46.742;11.636;2022-11-15T15:45:19;9.20;72.00
2767;DHT22;1391;46.742;11.636;2022-11-15T15:47:48;9.20;72.30
2767;DHT22;1391;46.742;11.636;2022-11-15T15:50:22;9.20;72.80
2767;DHT22;1391;46.742;11.636;2022-11-15T15:52:51;9.20;72.30
2767;DHT22;1391;46.742;11.636;2022-11-15T15:55:20;9.20;72.90
2767;DHT22;1391;46.742;11.636;2022-11-15T15:57:50;9.10;72.70
2767;DHT22;1391;46.742;11.636;2022-11-15T16:00:18;9.10;73.10
2767;DHT22;1391;46.742;11.636;2022-11-15T16:02:47;9.10;73.30
2767;DHT22;1391;46.742;11.636;2022-11-15T16:05:15;9.30;73.90
2767;DHT22;1391;46.742;11.636;2022-11-15T16:07:43;9.20;73.80
2767;DHT22;1391;46.742;11.636;2022-11-15T16:10:23;9.40;74.50
2767;DHT22;1391;46.742;11.636;2022-11-15T16:12:54;8.80;74.20
2767;DHT22;1391;46.742;11.636;2022-11-15T16:15:24;9.40;75.10
2767;DHT22;1391;46.742;11.636;2022-11-15T16:17:54;9.20;76.20
2767;DHT22;1391;46.742;11.636;2022-11-15T16:20:31;9.10;75.40
2767;DHT22;1391;46.742;11.636;2022-11-15T16:23:02;9.40;76.20
2767;DHT22;1391;46.742;11.636;2022-11-15T16:25:33;8.70;77.80
2767;DHT22;1391;46.742;11.636;2022-11-15T16:28:03;8.80;77.10
2767;DHT22;1391;46.742;11.636;2022-11-15T16:30:30;8.80;77.90
2767;DHT22;1391;46.742;11.636;2022-11-15T16:32:59;8.90;78.20
2767;DHT22;1391;46.742;11.636;2022-11-15T16:35:26;8.90;78.00
2767;DHT22;1391;46.742;11.636;2022-11-15T16:37:53;8.70;78.10
2767;DHT22;1391;46.742;11.636;2022-11-15T16:40:27;8.70;78.80
2767;DHT22;1391;46.742;11.636;2022-11-15T16:42:56;8.80;78.90
2767;DHT22;1391;46.742;11.636;2022-11-15T16:45:26;8.70;78.80
2767;DHT22;1391;46.742;11.636;2022-11-15T16:47:54;8.80;80.80